createdAt,value
2022-11-30T00:00:43.324Z,81.94
2022-11-30T00:03:11.130Z,81.87
2022-11-30T00:05:38.754Z,82.41
2022-11-30T00:08:06.881Z,82.97
2022-11-30T00:10:35.002Z,81.92
2022-11-30T00:13:02.677Z,82.15
2022-11-30T00:15:36.505Z,81.56
2022-11-30T00:18:04.278Z,82.09
2022-11-30T00:20:32.191Z,80.93
2022-11-30T00:23:00.427Z,81.05
2022-11-30T00:25:28.135Z,81.17
2022-11-30T00:27:55.735Z,80.97
2022-11-30T00:30:23.433Z,81.13
2022-11-30T00:32:51.104Z,81.59
2022-11-30T00:35:18.679Z,80.93
2022-11-30T00:37:46.307Z,80.83
2022-11-30T00:40:14.354Z,81.78
2022-11-30T00:42:42.254Z,81.12
2022-11-30T00:45:10.355Z,81.63
2022-11-30T00:47:39.776Z,81.72
2022-11-30T00:50:08.093Z,81.37
2022-11-30T00:52:35.930Z,81.19
2022-11-30T00:55:04.440Z,81.36
2022-11-30T00:57:33.044Z,81.12
2022-11-30T01:00:00.651Z,81.04
2022-11-30T01:02:28.702Z,81.25
2022-11-30T01:04:56.253Z,80.68
2022-11-30T01:07:24.132Z,80.63
2022-11-30T01:09:51.811Z,80.64
2022-11-30T01:12:19.439Z,80.43
2022-11-30T01:14:47.131Z,80.41
2022-11-30T01:17:14.930Z,80.36
2022-11-30T01:19:42.439Z,80.38
2022-11-30T01:22:10.162Z,80.49
2022-11-30T01:24:37.793Z,80.30
2022-11-30T01:27:05.331Z,79.72
2022-11-30T01:29:32.942Z,79.54
2022-11-30T01:32:01.360Z,79.37
2022-11-30T01:34:29.104Z,79.41
2022-11-30T01:36:56.789Z,79.32
2022-11-30T01:39:24.463Z,78.92
2022-11-30T01:41:53.781Z,78.92
2022-11-30T01:44:26.726Z,78.83
2022-11-30T01:47:00.170Z,78.87
2022-11-30T01:49:31.769Z,78.96
2022-11-30T01:52:17.058Z,77.97
2022-11-30T01:54:54.758Z,78.23
2022-11-30T01:57:27.578Z,77.85
2022-11-30T01:59:55.477Z,77.58
2022-11-30T02:02:53.159Z,77.74
2022-11-30T02:05:22.601Z,78.29
2022-11-30T02:07:50.359Z,78.20
2022-11-30T02:10:19.933Z,77.65
2022-11-30T02:12:59.633Z,77.44
2022-11-30T02:15:28.479Z,77.11
2022-11-30T02:18:09.909Z,77.97
2022-11-30T02:21:04.497Z,77.95
2022-11-30T02:23:49.610Z,77.82
2022-11-30T02:26:33.867Z,78.30
2022-11-30T02:29:06.521Z,77.95
2022-11-30T02:31:42.737Z,78.02
2022-11-30T02:34:10.967Z,78.24
2022-11-30T02:36:38.568Z,77.92
2022-11-30T02:39:06.714Z,77.69
2022-11-30T02:41:39.123Z,77.69
2022-11-30T02:44:07.440Z,77.33
2022-11-30T02:47:01.161Z,76.58
2022-11-30T02:49:37.643Z,76.77
2022-11-30T02:52:05.526Z,77.43
2022-11-30T02:54:34.043Z,77.32
2022-11-30T02:57:02.016Z,77.25
2022-11-30T02:59:29.680Z,77.63
2022-11-30T03:01:57.764Z,77.42
2022-11-30T03:04:44.222Z,77.88
2022-11-30T03:07:12.064Z,77.36
2022-11-30T03:09:39.819Z,77.31
2022-11-30T03:12:07.480Z,77.24
2022-11-30T03:14:35.061Z,76.99
2022-11-30T03:17:02.619Z,76.97
2022-11-30T03:19:30.609Z,77.51
2022-11-30T03:21:58.288Z,77.33
2022-11-30T03:24:26.001Z,77.06
2022-11-30T03:26:53.535Z,77.27
2022-11-30T03:29:22.318Z,77.23
2022-11-30T03:31:49.897Z,77.13
2022-11-30T03:34:17.501Z,77.40
2022-11-30T03:36:45.040Z,77.57
2022-11-30T03:39:12.748Z,77.63
2022-11-30T03:41:40.436Z,77.52
2022-11-30T03:44:07.973Z,76.82
2022-11-30T03:46:35.748Z,77.31
2022-11-30T03:49:04.356Z,77.09
2022-11-30T03:51:32.662Z,76.94
2022-11-30T03:54:00.243Z,77.25
2022-11-30T03:56:28.960Z,77.43
2022-11-30T03:58:56.534Z,77.52
2022-11-30T04:01:24.940Z,77.53
2022-11-30T04:03:52.831Z,77.56
2022-11-30T04:06:22.347Z,76.75
2022-11-30T04:08:50.431Z,76.89
2022-11-30T04:11:18.776Z,76.55
2022-11-30T04:13:46.374Z,77.14
2022-11-30T04:16:14.013Z,76.94
2022-11-30T04:18:41.590Z,76.15
2022-11-30T04:21:10.012Z,76.21
2022-11-30T04:23:39.012Z,77.00
2022-11-30T04:26:10.068Z,76.90
2022-11-30T04:28:38.865Z,76.45
2022-11-30T04:31:06.709Z,75.94
2022-11-30T04:33:34.466Z,76.74
2022-11-30T04:36:05.316Z,76.57
2022-11-30T04:38:33.143Z,77.11
2022-11-30T04:41:00.825Z,76.66
2022-11-30T04:43:28.922Z,76.67
2022-11-30T04:45:56.642Z,76.33
2022-11-30T04:48:24.523Z,76.00
2022-11-30T04:50:52.312Z,76.06
2022-11-30T04:53:19.914Z,75.33
2022-11-30T04:55:47.447Z,75.26
2022-11-30T04:58:15.413Z,75.47
2022-11-30T05:00:42.967Z,75.36
2022-11-30T05:03:10.660Z,75.62
2022-11-30T05:05:40.682Z,75.26
2022-11-30T05:08:09.479Z,75.06
2022-11-30T05:10:37.012Z,75.37
2022-11-30T05:13:04.646Z,75.51
2022-11-30T05:15:33.060Z,75.03
2022-11-30T05:18:01.443Z,75.06
2022-11-30T05:20:29.201Z,74.83
2022-11-30T05:22:56.742Z,74.61
2022-11-30T05:25:24.596Z,74.71
2022-11-30T05:27:52.272Z,74.23
2022-11-30T05:30:20.018Z,74.22
2022-11-30T05:32:50.130Z,74.58
2022-11-30T05:35:17.821Z,73.23
2022-11-30T05:37:46.823Z,73.03
2022-11-30T05:40:15.022Z,72.75
2022-11-30T05:42:42.596Z,72.96
2022-11-30T05:45:10.834Z,73.04
2022-11-30T05:47:39.097Z,72.36
2022-11-30T05:50:09.524Z,72.75
2022-11-30T05:52:39.366Z,72.79
2022-11-30T05:55:07.181Z,72.79
2022-11-30T05:57:38.962Z,71.58
2022-11-30T06:00:08.695Z,71.56
2022-11-30T06:02:42.347Z,71.26
2022-11-30T06:05:10.207Z,70.66
2022-11-30T06:41:20.090Z,67.75
2022-11-30T06:43:48.979Z,67.67
2022-11-30T06:46:16.752Z,67.00
2022-11-30T06:48:51.017Z,66.50
2022-11-30T06:51:20.760Z,66.03
2022-11-30T06:53:48.433Z,64.83
2022-11-30T06:56:16.224Z,65.26
2022-11-30T06:58:44.421Z,65.38
2022-11-30T07:01:14.758Z,64.83
2022-11-30T07:03:42.500Z,64.73
2022-11-30T07:06:14.781Z,64.32
2022-11-30T07:08:44.576Z,64.86
2022-11-30T07:11:12.357Z,63.77
2022-11-30T07:13:40.186Z,63.91
2022-11-30T07:16:09.158Z,63.88
2022-11-30T07:18:37.029Z,63.91
2022-11-30T07:21:05.503Z,63.24
2022-11-30T07:23:56.189Z,62.81
2022-11-30T07:26:24.731Z,62.62
2022-11-30T07:28:55.466Z,62.88
2022-11-30T07:31:24.200Z,62.96
2022-11-30T07:33:52.675Z,62.22
2022-11-30T07:36:23.114Z,61.31
2022-11-30T07:38:51.610Z,60.44
2022-11-30T07:41:19.419Z,60.40
2022-11-30T07:43:47.077Z,59.53
2022-11-30T07:46:15.451Z,59.63
2022-11-30T07:48:43.519Z,58.90
2022-11-30T07:51:19.891Z,58.41
2022-11-30T07:53:47.945Z,58.50
2022-11-30T07:56:19.567Z,58.01
2022-11-30T07:58:48.071Z,58.33
2022-11-30T08:01:17.697Z,57.47
2022-11-30T08:03:45.647Z,57.48
2022-11-30T08:06:20.354Z,58.42
2022-11-30T08:08:49.039Z,56.90
2022-11-30T08:11:18.750Z,56.34
2022-11-30T08:13:46.359Z,56.07
2022-11-30T08:16:17.025Z,56.95
2022-11-30T08:18:44.728Z,55.56
2022-11-30T08:21:13.599Z,56.15
2022-11-30T08:23:42.729Z,56.55
2022-11-30T08:26:12.034Z,54.86
2022-11-30T08:28:40.461Z,54.84
2022-11-30T08:31:10.536Z,53.73
2022-11-30T08:33:38.266Z,53.31
2022-11-30T08:36:17.027Z,52.45
2022-11-30T08:38:45.226Z,52.00
2022-11-30T08:41:16.126Z,51.56
2022-11-30T08:43:44.378Z,51.22
2022-11-30T08:46:42.469Z,51.81
2022-11-30T08:49:20.253Z,51.09
2022-11-30T08:54:39.571Z,49.90
2022-11-30T08:57:07.114Z,49.07
2022-11-30T08:59:35.125Z,48.29
2022-11-30T09:02:02.866Z,48.84
2022-11-30T09:04:30.556Z,48.87
2022-11-30T09:06:59.411Z,48.80
2022-11-30T09:09:27.229Z,49.09
2022-11-30T09:11:55.885Z,48.61
2022-11-30T09:14:23.829Z,49.69
2022-11-30T09:16:52.044Z,49.46
2022-11-30T09:19:20.136Z,50.00
2022-11-30T09:21:51.921Z,49.63
2022-11-30T09:24:21.023Z,50.50
2022-11-30T09:26:48.725Z,50.55
2022-11-30T09:29:16.420Z,50.27
2022-11-30T09:32:34.013Z,49.96
2022-11-30T09:35:01.659Z,50.42
2022-11-30T09:37:29.528Z,50.55
2022-11-30T09:39:57.371Z,50.67
2022-11-30T09:42:45.029Z,49.40
2022-11-30T09:45:31.873Z,49.88
2022-11-30T09:48:23.778Z,50.53
2022-11-30T09:50:51.677Z,50.89
2022-11-30T09:53:29.781Z,51.63
2022-11-30T09:55:57.608Z,50.80
2022-11-30T09:58:36.554Z,51.84
2022-11-30T10:01:07.344Z,51.51
2022-11-30T10:03:35.292Z,52.42
2022-11-30T10:06:09.352Z,52.04
2022-11-30T10:08:52.274Z,52.58
2022-11-30T10:11:41.257Z,51.45
2022-11-30T10:14:30.101Z,52.17
2022-11-30T10:17:22.499Z,51.89
2022-11-30T10:19:59.277Z,51.48
2022-11-30T10:22:32.062Z,52.15
2022-11-30T10:25:17.869Z,50.85
2022-11-30T10:27:55.636Z,51.42
2022-11-30T10:30:34.241Z,51.32
2022-11-30T10:33:18.881Z,52.10
2022-11-30T10:36:03.366Z,51.47
2022-11-30T10:38:34.868Z,51.57
2022-11-30T10:41:12.442Z,50.68
2022-11-30T10:43:45.731Z,52.04
2022-11-30T10:46:39.535Z,51.54
2022-11-30T10:49:13.946Z,52.01
2022-11-30T10:52:01.046Z,52.48
2022-11-30T10:54:37.558Z,51.74
2022-11-30T10:57:05.739Z,52.37
2022-11-30T10:59:50.116Z,52.87
2022-11-30T11:02:33.341Z,52.40
2022-11-30T11:05:31.078Z,51.71
2022-11-30T11:08:19.149Z,52.06
2022-11-30T11:10:49.918Z,51.79
2022-11-30T11:13:35.678Z,51.48
2022-11-30T11:16:04.130Z,52.07
2022-11-30T11:18:33.062Z,51.81
2022-11-30T11:21:10.145Z,51.39
2022-11-30T11:23:38.656Z,51.89
2022-11-30T11:26:35.723Z,51.64
2022-11-30T11:29:03.749Z,51.08
2022-11-30T11:31:46.849Z,49.97
2022-11-30T11:34:24.878Z,49.57
2022-11-30T11:37:28.845Z,49.60
2022-11-30T11:40:03.699Z,49.86
2022-11-30T11:42:34.635Z,50.80
2022-11-30T11:45:02.735Z,50.64
2022-11-30T11:47:41.556Z,49.63
2022-11-30T11:50:12.676Z,49.88
2022-11-30T11:52:40.630Z,50.07
2022-11-30T11:55:34.576Z,48.89
2022-11-30T11:58:02.596Z,49.80
2022-11-30T12:00:30.430Z,48.64
2022-11-30T12:03:08.977Z,48.18
2022-11-30T12:05:47.467Z,48.67
2022-11-30T12:08:29.087Z,48.75
2022-11-30T12:11:20.475Z,49.96
2022-11-30T12:13:48.132Z,48.36
2022-11-30T12:16:26.211Z,48.56
2022-11-30T12:19:15.809Z,49.20
2022-11-30T12:21:58.409Z,49.34
2022-11-30T12:24:34.696Z,48.74
2022-11-30T12:27:23.141Z,48.80
2022-11-30T12:29:56.852Z,49.25
2022-11-30T12:32:30.764Z,48.54
2022-11-30T12:35:17.492Z,48.99
2022-11-30T12:37:57.468Z,49.25
2022-11-30T12:40:39.054Z,48.94
2022-11-30T12:43:12.875Z,49.58
2022-11-30T12:45:42.747Z,49.83
2022-11-30T12:48:22.899Z,49.50
2022-11-30T12:51:32.364Z,49.87
2022-11-30T12:53:59.980Z,48.44
2022-11-30T12:56:49.235Z,48.46
2022-11-30T12:59:43.452Z,48.00
2022-11-30T13:02:32.861Z,48.51
2022-11-30T13:05:12.719Z,48.18
2022-11-30T13:07:44.138Z,48.27
2022-11-30T13:10:12.478Z,48.27
2022-11-30T13:12:43.932Z,48.56
2022-11-30T13:15:28.486Z,48.92
2022-11-30T13:17:56.088Z,49.15
2022-11-30T13:20:42.875Z,48.77
2022-11-30T13:23:12.816Z,49.15
2022-11-30T13:26:07.756Z,49.52
2022-11-30T13:28:36.191Z,49.44
2022-11-30T13:31:24.022Z,49.54
2022-11-30T13:33:54.719Z,49.63
2022-11-30T13:36:27.857Z,49.56
2022-11-30T13:39:13.882Z,49.02
2022-11-30T13:41:42.050Z,49.96
2022-11-30T13:44:32.408Z,49.40
2022-11-30T13:47:01.655Z,49.81
2022-11-30T13:49:36.326Z,49.70
2022-11-30T13:54:57.483Z,50.37
2022-11-30T13:57:25.042Z,49.70
2022-11-30T13:59:56.687Z,50.76
2022-11-30T14:02:33.332Z,50.18
2022-11-30T14:05:19.046Z,50.54
2022-11-30T14:08:07.625Z,50.98
2022-11-30T14:10:35.318Z,51.42
2022-11-30T14:13:29.473Z,51.82
2022-11-30T14:16:00.648Z,51.69
2022-11-30T14:18:38.632Z,51.88
2022-11-30T14:21:28.926Z,52.71
2022-11-30T14:24:07.963Z,52.21
2022-11-30T14:26:37.559Z,52.98
2022-11-30T14:29:08.505Z,53.32
2022-11-30T14:32:03.368Z,53.44
2022-11-30T14:34:39.141Z,53.47
2022-11-30T14:37:15.205Z,53.95
2022-11-30T14:39:45.774Z,54.38
2022-11-30T14:42:23.336Z,54.33
2022-11-30T14:44:51.120Z,55.35
2022-11-30T14:47:25.895Z,54.92
2022-11-30T14:49:55.274Z,55.11
2022-11-30T14:52:56.527Z,54.57
2022-11-30T14:55:24.224Z,54.91
2022-11-30T14:57:59.477Z,54.99
2022-11-30T15:00:30.498Z,54.85
2022-11-30T15:02:58.038Z,55.33
2022-11-30T15:05:28.301Z,55.77
2022-11-30T15:07:56.133Z,55.62
2022-11-30T15:10:29.922Z,56.02
2022-11-30T15:12:58.763Z,56.17
2022-11-30T15:15:27.967Z,56.25
2022-11-30T15:18:16.465Z,56.49
2022-11-30T15:20:45.037Z,56.93
2022-11-30T15:23:13.588Z,56.98
2022-11-30T15:25:51.237Z,57.08
2022-11-30T15:28:25.359Z,57.25
2022-11-30T15:30:55.023Z,58.00
2022-11-30T15:33:23.661Z,57.45
2022-11-30T15:38:43.269Z,57.79
2022-11-30T15:41:17.854Z,58.25
2022-11-30T15:43:51.946Z,57.62
2022-11-30T15:46:39.768Z,57.18
2022-11-30T15:49:24.877Z,56.63
2022-11-30T15:52:09.280Z,57.33
2022-11-30T15:54:56.045Z,57.33
2022-11-30T15:57:24.651Z,57.36
2022-11-30T16:00:14.008Z,58.10
2022-11-30T16:02:41.984Z,57.55
2022-11-30T16:05:14.734Z,58.17
2022-11-30T16:07:57.487Z,57.64
2022-11-30T16:10:26.819Z,57.99
2022-11-30T16:12:54.900Z,58.73
2022-11-30T16:15:27.601Z,58.12
2022-11-30T16:18:07.774Z,58.19
2022-11-30T16:20:35.476Z,58.50
2022-11-30T16:23:05.983Z,58.93
2022-11-30T16:25:33.973Z,59.15
2022-11-30T16:28:02.841Z,59.08
2022-11-30T16:30:30.762Z,58.98
2022-11-30T16:32:58.360Z,58.76
2022-11-30T16:36:17.349Z,58.97
2022-11-30T16:38:48.658Z,59.69
2022-11-30T16:41:21.107Z,59.64
2022-11-30T16:43:50.997Z,59.72
2022-11-30T16:46:23.187Z,59.93
2022-11-30T16:48:51.014Z,59.11
2022-11-30T16:51:24.097Z,59.87
2022-11-30T16:53:51.903Z,59.65
2022-11-30T16:56:19.661Z,59.77
2022-11-30T16:58:47.591Z,60.11
2022-11-30T17:01:21.816Z,60.18
2022-11-30T17:03:50.447Z,60.33
2022-11-30T17:06:22.137Z,59.53
2022-11-30T17:08:51.289Z,59.93
2022-11-30T17:11:29.617Z,59.88
2022-11-30T17:13:57.367Z,60.33
2022-11-30T17:16:25.045Z,59.79
2022-11-30T17:18:52.741Z,60.16
2022-11-30T17:21:23.883Z,60.64
2022-11-30T17:23:51.528Z,60.69
2022-11-30T19:19:21.770Z,60.52
2022-11-30T19:21:49.600Z,60.04
2022-11-30T19:24:17.271Z,60.30
2022-11-30T19:26:45.242Z,60.13
2022-11-30T19:29:12.910Z,59.48
2022-11-30T19:31:40.709Z,59.68
2022-11-30T19:34:12.506Z,60.20
2022-11-30T19:36:40.986Z,59.76
2022-11-30T19:39:09.867Z,59.78
2022-11-30T19:41:37.518Z,59.72
2022-11-30T19:44:05.268Z,59.52
2022-11-30T19:46:34.806Z,60.18
2022-11-30T19:49:02.702Z,59.91
2022-11-30T19:51:30.767Z,60.53
2022-11-30T19:54:01.141Z,61.02
2022-11-30T19:56:30.039Z,60.85
2022-11-30T19:59:04.167Z,61.35
2022-11-30T20:01:33.312Z,61.06
2022-11-30T20:04:01.107Z,61.05
2022-11-30T20:06:30.466Z,61.20
2022-11-30T20:08:58.281Z,60.62
2022-11-30T20:11:26.584Z,61.39
2022-11-30T20:13:54.227Z,61.25
2022-11-30T20:16:24.307Z,61.68
2022-11-30T20:19:00.980Z,61.55
2022-11-30T20:21:30.863Z,61.57
2022-11-30T20:24:00.153Z,61.81
2022-11-30T20:26:30.321Z,61.93
2022-11-30T20:28:59.118Z,62.15
2022-11-30T20:31:28.010Z,61.87
2022-11-30T20:33:55.615Z,61.90
2022-11-30T20:36:23.235Z,62.41
2022-11-30T20:38:50.788Z,62.15
2022-11-30T20:41:20.629Z,62.48
2022-11-30T20:43:48.231Z,62.82
2022-11-30T20:46:17.445Z,63.35
2022-11-30T20:48:45.185Z,63.15
2022-11-30T20:51:30.166Z,63.29
2022-11-30T20:54:03.883Z,62.74
2022-11-30T20:56:31.923Z,62.85
2022-11-30T20:59:03.181Z,62.64
2022-11-30T21:01:30.876Z,62.23
2022-11-30T21:04:00.926Z,62.50
2022-11-30T21:06:29.630Z,62.03
2022-11-30T21:08:57.576Z,61.94
2022-11-30T21:11:25.477Z,62.09
2022-11-30T21:13:53.519Z,62.43
2022-11-30T21:16:27.211Z,62.31
2022-11-30T21:18:56.304Z,62.26
2022-11-30T21:21:24.801Z,62.62
2022-11-30T21:23:52.545Z,62.27
2022-11-30T21:26:33.322Z,62.55
2022-11-30T21:29:03.514Z,62.06
2022-11-30T21:31:56.635Z,61.75
2022-11-30T21:34:25.471Z,61.42
2022-11-30T21:36:53.126Z,61.76
2022-11-30T21:39:21.245Z,61.06
2022-11-30T21:41:48.840Z,61.20
2022-11-30T21:44:16.919Z,61.16
2022-11-30T21:46:45.839Z,61.56
2022-11-30T21:49:14.462Z,61.75
2022-11-30T21:51:44.207Z,61.42
2022-11-30T21:54:12.353Z,61.35
2022-11-30T21:56:40.891Z,60.99
2022-11-30T21:59:08.893Z,60.36
2022-11-30T22:01:41.776Z,60.77
2022-11-30T22:04:10.263Z,60.08
2022-11-30T22:06:38.516Z,60.50
2022-11-30T22:09:08.173Z,60.18
2022-11-30T22:11:39.066Z,59.86
2022-11-30T22:14:07.493Z,60.35
2022-11-30T22:16:36.496Z,60.08
2022-11-30T22:19:05.593Z,60.05
2022-11-30T22:21:33.241Z,60.03
2022-11-30T22:24:05.521Z,59.98
2022-11-30T22:26:43.589Z,60.08
2022-11-30T22:29:19.375Z,59.22
2022-11-30T22:31:48.805Z,59.42
2022-11-30T22:34:18.221Z,59.95
2022-11-30T22:36:46.055Z,60.00
2022-11-30T22:39:19.466Z,60.03
2022-11-30T22:41:54.273Z,59.89
2022-11-30T22:44:22.675Z,60.00
2022-11-30T22:46:50.380Z,59.38
2022-11-30T22:49:21.284Z,59.59
2022-11-30T22:51:49.563Z,60.51
2022-11-30T22:54:17.303Z,59.58
2022-11-30T22:56:46.689Z,59.28
